sensor_id;sensor_type;location;lat;lon;timestamp;temperature;humidity
3736;DHT22;1883;48.202;16.310;2022-10-01T00:39:01;12.80;48.10
3736;DHT22;1883;48.202;16.310;2022-10-01T00:41:32;12.90;48.20
3736;DHT22;1883;48.202;16.310;2022-10-01T00:44:02;12.90;48.20
3736;DHT22;1883;48.202;16.310;2022-10-01T00:46:37;12.80;48.20
3736;DHT22;1883;48.202;16.310;2022-10-01T00:49:07;12.90;48.20
3736;DHT22;1883;48.202;16.310;2022-10-01T00:51:39;12.80;48.30
3736;DHT22;1883;48.202;16.310;2022-10-01T00:54:13;12.80;48.10
3736;DHT22;1883;48.202;16.310;2022-10-01T00:56:44;12.90;48.30
3736;DHT22;1883;48.202;16.310;2022-10-01T00:59:14;12.90;48.20
3736;DHT22;1883;48.202;16.310;2022-10-01T01:01:41;12.80;48.30
3736;DHT22;1883;48.202;16.310;2022-10-01T01:09:22;12.70;48.10
3736;DHT22;1883;48.202;16.310;2022-10-01T01:11:56;12.70;48.00
3736;DHT22;1883;48.202;16.310;2022-10-01T01:14:33;12.80;48.00
3736;DHT22;1883;48.202;16.310;2022-10-01T01:17:07;12.90;48.00
3736;DHT22;1883;48.202;16.310;2022-10-01T01:19:50;12.90;48.20
3736;DHT22;1883;48.202;16.310;2022-10-01T01:22:23;12.90;48.10
3736;DHT22;1883;48.202;16.310;2022-10-01T01:25:02;12.90;48.20
3736;DHT22;1883;48.202;16.310;2022-10-01T01:27:36;13.00;48.20
3736;DHT22;1883;48.202;16.310;2022-10-01T01:30:09;12.90;48.50
3736;DHT22;1883;48.202;16.310;2022-10-01T01:50:52;12.80;48.20
3736;DHT22;1883;48.202;16.310;2022-10-01T01:53:20;12.80;48.10
3736;DHT22;1883;48.202;16.310;2022-10-01T01:58:24;12.80;48.00
3736;DHT22;1883;48.202;16.310;2022-10-01T02:00:53;12.80;48.00
3736;DHT22;1883;48.202;16.310;2022-10-01T02:03:24;12.80;48.00
3736;DHT22;1883;48.202;16.310;2022-10-01T02:06:07;12.80;47.90
3736;DHT22;1883;48.202;16.310;2022-10-01T02:08:41;12.80;47.80
3736;DHT22;1883;48.202;16.310;2022-10-01T02:11:21;12.80;47.90
3736;DHT22;1883;48.202;16.310;2022-10-01T02:13:59;12.80;47.90
3736;DHT22;1883;48.202;16.310;2022-10-01T02:16:33;12.80;47.70
3736;DHT22;1883;48.202;16.310;2022-10-01T02:19:07;12.70;47.90
3736;DHT22;1883;48.202;16.310;2022-10-01T02:21:40;12.80;47.90
3736;DHT22;1883;48.202;16.310;2022-10-01T02:24:13;12.70;48.00
3736;DHT22;1883;48.202;16.310;2022-10-01T03:24:30;12.90;48.90
3736;DHT22;1883;48.202;16.310;2022-10-01T03:26:57;13.00;49.00
3736;DHT22;1883;48.202;16.310;2022-10-01T03:29:25;12.90;49.10
3736;DHT22;1883;48.202;16.310;2022-10-01T03:31:53;12.80;49.10
3736;DHT22;1883;48.202;16.310;2022-10-01T03:34:22;12.80;49.00
3736;DHT22;1883;48.202;16.310;2022-10-01T03:36:50;12.80;49.00
3736;DHT22;1883;48.202;16.310;2022-10-01T03:39:19;12.80;48.90
3736;DHT22;1883;48.202;16.310;2022-10-01T03:41:47;12.70;48.80
3736;DHT22;1883;48.202;16.310;2022-10-01T03:44:15;12.80;48.90
3736;DHT22;1883;48.202;16.310;2022-10-01T03:46:42;12.80;48.80
3736;DHT22;1883;48.202;16.310;2022-10-01T03:49:10;12.70;48.90
3736;DHT22;1883;48.202;16.310;2022-10-01T03:51:37;12.70;48.70
3736;DHT22;1883;48.202;16.310;2022-10-01T03:54:05;12.70;48.90
3736;DHT22;1883;48.202;16.310;2022-10-01T03:56:34;12.80;48.90
3736;DHT22;1883;48.202;16.310;2022-10-01T03:59:04;12.80;48.90
